sensor_id;sensor_type;location;lat;lon;timestamp;temperature;humidity
12893;DHT22;6514;48.606;9.222;2023-03-14T00:00:03;9.20;99.90
12893;DHT22;6514;48.606;9.222;2023-03-14T00:02:31;9.20;99.90
12893;DHT22;6514;48.606;9.222;2023-03-14T00:04:58;9.20;99.90
12893;DHT22;6514;48.606;9.222;2023-03-14T00:07:25;9.10;99.90
12893;DHT22;6514;48.606;9.222;2023-03-14T00:09:52;9.10;99.90
12893;DHT22;6514;48.606;9.222;2023-03-14T00:12:19;8.60;99.90
12893;DHT22;6514;48.606;9.222;2023-03-14T00:14:47;9.20;99.90
12893;DHT22;6514;48.606;9.222;2023-03-14T00:17:14;9.30;99.90
12893;DHT22;6514;48.606;9.222;2023-03-14T00:19:40;9.20;99.90
12893;DHT22;6514;48.606;9.222;2023-03-14T00:22:07;9.30;99.90
12893;DHT22;6514;48.606;9.222;2023-03-14T00:24:34;9.30;99.90
12893;DHT22;6514;48.606;9.222;2023-03-14T00:27:01;9.30;99.90
12893;DHT22;6514;48.606;9.222;2023-03-14T00:29:28;9.20;99.90
12893;DHT22;6514;48.606;9.222;2023-03-14T00:31:56;9.20;99.90
12893;DHT22;6514;48.606;9.222;2023-03-14T00:34:23;9.20;99.90
12893;DHT22;6514;48.606;9.222;2023-03-14T00:36:49;9.10;99.90
12893;DHT22;6514;48.606;9.222;2023-03-14T00:39:16;9.10;99.90
12893;DHT22;6514;48.606;9.222;2023-03-14T00:41:43;9.10;99.90
12893;DHT22;6514;48.606;9.222;2023-03-14T00:44:10;9.10;99.90
12893;DHT22;6514;48.606;9.222;2023-03-14T00:46:37;9.00;99.90
12893;DHT22;6514;48.606;9.222;2023-03-14T00:49:05;9.00;99.90
12893;DHT22;6514;48.606;9.222;2023-03-14T00:51:32;9.00;99.90
12893;DHT22;6514;48.606;9.222;2023-03-14T00:53:59;8.90;99.90
12893;DHT22;6514;48.606;9.222;2023-03-14T00:56:26;8.90;99.90
12893;DHT22;6514;48.606;9.222;2023-03-14T00:58:54;8.90;99.90
12893;DHT22;6514;48.606;9.222;2023-03-14T01:01:21;8.90;99.90
12893;DHT22;6514;48.606;9.222;2023-03-14T01:03:51;8.90;99.90
12893;DHT22;6514;48.606;9.222;2023-03-14T01:06:21;8.90;99.90
12893;DHT22;6514;48.606;9.222;2023-03-14T01:08:49;9.00;99.90
12893;DHT22;6514;48.606;9.222;2023-03-14T01:11:18;8.90;99.90
12893;DHT22;6514;48.606;9.222;2023-03-14T01:13:46;8.90;99.90
12893;DHT22;6514;48.606;9.222;2023-03-14T01:16:14;8.90;99.90
12893;DHT22;6514;48.606;9.222;2023-03-14T01:18:43;8.90;99.90
12893;DHT22;6514;48.606;9.222;2023-03-14T01:21:12;8.90;99.90
12893;DHT22;6514;48.606;9.222;2023-03-14T01:23:41;8.90;99.90
12893;DHT22;6514;48.606;9.222;2023-03-14T01:26:09;8.90;99.90
12893;DHT22;6514;48.606;9.222;2023-03-14T01:28:36;8.90;99.90
12893;DHT22;6514;48.606;9.222;2023-03-14T01:31:04;8.90;99.90
12893;DHT22;6514;48.606;9.222;2023-03-14T01:33:31;8.90;99.90
12893;DHT22;6514;48.606;9.222;2023-03-14T01:35:58;8.90;99.90
12893;DHT22;6514;48.606;9.222;2023-03-14T01:38:27;8.90;99.90
12893;DHT22;6514;48.606;9.222;2023-03-14T01:40:56;8.90;99.90
12893;DHT22;6514;48.606;9.222;2023-03-14T01:43:23;9.00;99.90
12893;DHT22;6514;48.606;9.222;2023-03-14T01:46:25;9.00;99.90
12893;DHT22;6514;48.606;9.222;2023-03-14T01:48:57;9.00;99.90
12893;DHT22;6514;48.606;9.222;2023-03-14T01:51:29;9.00;99.90
12893;DHT22;6514;48.606;9.222;2023-03-14T01:54:02;9.00;99.90
12893;DHT22;6514;48.606;9.222;2023-03-14T01:56:32;8.90;99.90
12893;DHT22;6514;48.606;9.222;2023-03-14T01:59:10;8.90;99.90
12893;DHT22;6514;48.606;9.222;2023-03-14T02:01:38;8.90;99.90
12893;DHT22;6514;48.606;9.222;2023-03-14T02:04:07;8.90;99.90
12893;DHT22;6514;48.606;9.222;2023-03-14T02:06:41;8.80;99.90
12893;DHT22;6514;48.606;9.222;2023-03-14T02:09:10;8.80;99.90
12893;DHT22;6514;48.606;9.222;2023-03-14T02:11:39;8.90;99.90
12893;DHT22;6514;48.606;9.222;2023-03-14T02:14:08;8.80;99.90
12893;DHT22;6514;48.606;9.222;2023-03-14T02:16:40;8.80;99.90
12893;DHT22;6514;48.606;9.222;2023-03-14T02:19:08;8.90;99.90
12893;DHT22;6514;48.606;9.222;2023-03-14T02:21:47;8.90;99.90
12893;DHT22;6514;48.606;9.222;2023-03-14T02:24:21;8.90;99.90
12893;DHT22;6514;48.606;9.222;2023-03-14T02:27:07;8.80;99.90
12893;DHT22;6514;48.606;9.222;2023-03-14T02:29:36;8.90;99.90
12893;DHT22;6514;48.606;9.222;2023-03-14T02:32:05;8.90;99.90
12893;DHT22;6514;48.606;9.222;2023-03-14T02:34:32;8.90;99.90
12893;DHT22;6514;48.606;9.222;2023-03-14T02:37:00;8.80;99.90
12893;DHT22;6514;48.606;9.222;2023-03-14T02:39:30;8.90;99.90
12893;DHT22;6514;48.606;9.222;2023-03-14T02:42:01;8.90;99.90
12893;DHT22;6514;48.606;9.222;2023-03-14T02:44:30;8.90;99.90
12893;DHT22;6514;48.606;9.222;2023-03-14T02:46:57;8.90;99.90
12893;DHT22;6514;48.606;9.222;2023-03-14T02:49:25;8.90;99.90
12893;DHT22;6514;48.606;9.222;2023-03-14T02:51:53;8.90;99.90
12893;DHT22;6514;48.606;9.222;2023-03-14T02:54:20;8.90;99.90
12893;DHT22;6514;48.606;9.222;2023-03-14T02:56:47;8.90;99.90
12893;DHT22;6514;48.606;9.222;2023-03-14T02:59:14;8.90;99.90
12893;DHT22;6514;48.606;9.222;2023-03-14T03:01:42;8.80;99.90
12893;DHT22;6514;48.606;9.222;2023-03-14T03:04:09;8.80;99.90
12893;DHT22;6514;48.606;9.222;2023-03-14T03:06:36;8.80;99.90
12893;DHT22;6514;48.606;9.222;2023-03-14T03:09:03;8.80;99.90
12893;DHT22;6514;48.606;9.222;2023-03-14T03:11:30;8.70;99.90
12893;DHT22;6514;48.606;9.222;2023-03-14T03:13:58;8.70;99.90
12893;DHT22;6514;48.606;9.222;2023-03-14T03:16:25;8.70;99.90
12893;DHT22;6514;48.606;9.222;2023-03-14T03:18:53;8.60;99.90
12893;DHT22;6514;48.606;9.222;2023-03-14T03:21:20;8.60;99.90
12893;DHT22;6514;48.606;9.222;2023-03-14T03:23:49;8.60;99.90
12893;DHT22;6514;48.606;9.222;2023-03-14T03:26:16;8.60;99.90
12893;DHT22;6514;48.606;9.222;2023-03-14T03:28:43;8.60;99.90
12893;DHT22;6514;48.606;9.222;2023-03-14T03:31:10;8.60;99.90
12893;DHT22;6514;48.606;9.222;2023-03-14T03:33:37;8.50;99.90
12893;DHT22;6514;48.606;9.222;2023-03-14T03:36:07;8.50;99.90
12893;DHT22;6514;48.606;9.222;2023-03-14T03:38:34;8.50;99.90
12893;DHT22;6514;48.606;9.222;2023-03-14T03:41:02;8.40;99.90
12893;DHT22;6514;48.606;9.222;2023-03-14T03:43:30;8.40;99.90
12893;DHT22;6514;48.606;9.222;2023-03-14T03:45:57;8.40;99.90
12893;DHT22;6514;48.606;9.222;2023-03-14T03:48:24;8.30;99.90
12893;DHT22;6514;48.606;9.222;2023-03-14T03:50:51;8.30;99.90
12893;DHT22;6514;48.606;9.222;2023-03-14T03:53:19;8.30;99.90
12893;DHT22;6514;48.606;9.222;2023-03-14T03:55:46;8.20;99.90
12893;DHT22;6514;48.606;9.222;2023-03-14T03:58:13;8.20;99.90
12893;DHT22;6514;48.606;9.222;2023-03-14T04:00:40;8.20;99.90
12893;DHT22;6514;48.606;9.222;2023-03-14T04:03:07;8.20;99.90
12893;DHT22;6514;48.606;9.222;2023-03-14T04:05:35;8.20;99.90
12893;DHT22;6514;48.606;9.222;2023-03-14T04:08:02;8.20;99.90
12893;DHT22;6514;48.606;9.222;2023-03-14T04:10:34;8.10;99.90
12893;DHT22;6514;48.606;9.222;2023-03-14T04:13:01;8.10;99.90
12893;DHT22;6514;48.606;9.222;2023-03-14T04:15:27;8.10;99.90
12893;DHT22;6514;48.606;9.222;2023-03-14T04:17:57;8.10;99.90
12893;DHT22;6514;48.606;9.222;2023-03-14T04:20:24;8.10;99.90
12893;DHT22;6514;48.606;9.222;2023-03-14T04:22:51;8.00;99.90
12893;DHT22;6514;48.606;9.222;2023-03-14T04:25:17;8.00;99.90
12893;DHT22;6514;48.606;9.222;2023-03-14T04:27:47;8.10;99.90
12893;DHT22;6514;48.606;9.222;2023-03-14T04:30:14;8.10;99.90
12893;DHT22;6514;48.606;9.222;2023-03-14T04:32:41;7.80;99.90
12893;DHT22;6514;48.606;9.222;2023-03-14T04:35:08;8.00;99.90
12893;DHT22;6514;48.606;9.222;2023-03-14T04:37:35;8.00;99.90
12893;DHT22;6514;48.606;9.222;2023-03-14T04:40:03;8.00;99.90
12893;DHT22;6514;48.606;9.222;2023-03-14T04:42:31;8.00;99.90
12893;DHT22;6514;48.606;9.222;2023-03-14T04:44:59;8.00;99.90
12893;DHT22;6514;48.606;9.222;2023-03-14T04:47:26;8.00;99.90
12893;DHT22;6514;48.606;9.222;2023-03-14T04:49:53;8.10;99.90
12893;DHT22;6514;48.606;9.222;2023-03-14T04:52:20;8.00;99.90
12893;DHT22;6514;48.606;9.222;2023-03-14T04:54:47;8.10;99.90
12893;DHT22;6514;48.606;9.222;2023-03-14T04:57:14;8.10;99.90
12893;DHT22;6514;48.606;9.222;2023-03-14T04:59:41;8.10;99.90
12893;DHT22;6514;48.606;9.222;2023-03-14T05:02:09;8.10;99.90
12893;DHT22;6514;48.606;9.222;2023-03-14T05:04:36;8.10;99.90
12893;DHT22;6514;48.606;9.222;2023-03-14T05:07:03;8.10;99.90
12893;DHT22;6514;48.606;9.222;2023-03-14T05:09:29;8.10;99.90
12893;DHT22;6514;48.606;9.222;2023-03-14T05:11:56;8.10;99.90
12893;DHT22;6514;48.606;9.222;2023-03-14T05:14:23;8.10;99.90
12893;DHT22;6514;48.606;9.222;2023-03-14T05:16:50;8.00;99.90
12893;DHT22;6514;48.606;9.222;2023-03-14T05:19:20;8.00;99.90
12893;DHT22;6514;48.606;9.222;2023-03-14T05:21:46;8.00;99.90
12893;DHT22;6514;48.606;9.222;2023-03-14T05:24:13;8.00;99.90
12893;DHT22;6514;48.606;9.222;2023-03-14T05:26:40;7.90;99.90
12893;DHT22;6514;48.606;9.222;2023-03-14T05:29:07;8.00;99.90
12893;DHT22;6514;48.606;9.222;2023-03-14T05:31:34;8.00;99.90
12893;DHT22;6514;48.606;9.222;2023-03-14T05:34:00;8.00;99.90
12893;DHT22;6514;48.606;9.222;2023-03-14T05:36:28;8.00;99.90
12893;DHT22;6514;48.606;9.222;2023-03-14T05:38:55;8.00;99.90
12893;DHT22;6514;48.606;9.222;2023-03-14T05:41:22;8.00;99.90
12893;DHT22;6514;48.606;9.222;2023-03-14T05:43:49;8.00;99.90
12893;DHT22;6514;48.606;9.222;2023-03-14T05:46:16;8.00;99.90
12893;DHT22;6514;48.606;9.222;2023-03-14T05:48:43;8.00;99.90
12893;DHT22;6514;48.606;9.222;2023-03-14T05:51:10;8.00;99.90
12893;DHT22;6514;48.606;9.222;2023-03-14T05:53:38;8.00;99.90
12893;DHT22;6514;48.606;9.222;2023-03-14T05:56:05;8.00;99.90
12893;DHT22;6514;48.606;9.222;2023-03-14T05:58:32;8.00;99.90
12893;DHT22;6514;48.606;9.222;2023-03-14T06:01:01;8.00;99.90
12893;DHT22;6514;48.606;9.222;2023-03-14T06:03:28;8.00;99.90
12893;DHT22;6514;48.606;9.222;2023-03-14T06:05:55;8.00;99.90
12893;DHT22;6514;48.606;9.222;2023-03-14T06:08:22;8.00;99.90
12893;DHT22;6514;48.606;9.222;2023-03-14T06:10:51;7.90;99.90
12893;DHT22;6514;48.606;9.222;2023-03-14T06:13:18;7.90;99.90
12893;DHT22;6514;48.606;9.222;2023-03-14T06:15:45;7.90;99.90
12893;DHT22;6514;48.606;9.222;2023-03-14T06:18:12;7.90;99.90
12893;DHT22;6514;48.606;9.222;2023-03-14T06:20:40;7.90;99.90
12893;DHT22;6514;48.606;9.222;2023-03-14T06:23:08;7.80;99.90
12893;DHT22;6514;48.606;9.222;2023-03-14T06:25:35;7.80;99.90
12893;DHT22;6514;48.606;9.222;2023-03-14T06:28:03;7.90;99.90
12893;DHT22;6514;48.606;9.222;2023-03-14T06:30:30;7.90;99.90
12893;DHT22;6514;48.606;9.222;2023-03-14T06:32:57;7.80;99.90
12893;DHT22;6514;48.606;9.222;2023-03-14T06:35:24;7.80;99.90
12893;DHT22;6514;48.606;9.222;2023-03-14T06:37:51;7.80;99.90
12893;DHT22;6514;48.606;9.222;2023-03-14T06:40:18;7.80;99.90
12893;DHT22;6514;48.606;9.222;2023-03-14T06:42:44;7.70;99.90
12893;DHT22;6514;48.606;9.222;2023-03-14T06:45:13;7.70;99.90
12893;DHT22;6514;48.606;9.222;2023-03-14T06:47:40;7.80;99.90
12893;DHT22;6514;48.606;9.222;2023-03-14T06:50:08;7.90;99.90
12893;DHT22;6514;48.606;9.222;2023-03-14T06:52:35;7.90;99.90
12893;DHT22;6514;48.606;9.222;2023-03-14T06:55:03;8.00;99.90
12893;DHT22;6514;48.606;9.222;2023-03-14T06:57:30;8.10;99.90
12893;DHT22;6514;48.606;9.222;2023-03-14T06:59:57;8.20;99.90
12893;DHT22;6514;48.606;9.222;2023-03-14T07:02:25;8.30;99.90
12893;DHT22;6514;48.606;9.222;2023-03-14T07:04:52;8.40;99.90
12893;DHT22;6514;48.606;9.222;2023-03-14T07:07:19;8.50;99.90
12893;DHT22;6514;48.606;9.222;2023-03-14T07:09:46;8.60;99.90
12893;DHT22;6514;48.606;9.222;2023-03-14T07:12:13;8.70;99.90
12893;DHT22;6514;48.606;9.222;2023-03-14T07:14:39;8.80;99.90
12893;DHT22;6514;48.606;9.222;2023-03-14T07:17:06;9.00;99.90
12893;DHT22;6514;48.606;9.222;2023-03-14T07:19:34;9.10;99.90
12893;DHT22;6514;48.606;9.222;2023-03-14T07:22:03;9.40;99.90
12893;DHT22;6514;48.606;9.222;2023-03-14T07:24:30;9.60;99.90
12893;DHT22;6514;48.606;9.222;2023-03-14T07:26:57;9.60;99.90
12893;DHT22;6514;48.606;9.222;2023-03-14T07:29:24;9.70;99.90
12893;DHT22;6514;48.606;9.222;2023-03-14T07:31:51;9.70;99.90
12893;DHT22;6514;48.606;9.222;2023-03-14T07:34:18;9.70;99.90
12893;DHT22;6514;48.606;9.222;2023-03-14T07:36:46;9.80;99.90
12893;DHT22;6514;48.606;9.222;2023-03-14T07:39:13;10.20;99.90
12893;DHT22;6514;48.606;9.222;2023-03-14T07:41:40;10.60;99.90
12893;DHT22;6514;48.606;9.222;2023-03-14T07:44:07;11.00;99.90
12893;DHT22;6514;48.606;9.222;2023-03-14T07:46:34;11.20;99.90
12893;DHT22;6514;48.606;9.222;2023-03-14T07:49:01;11.40;99.90
12893;DHT22;6514;48.606;9.222;2023-03-14T07:51:28;11.40;99.90
12893;DHT22;6514;48.606;9.222;2023-03-14T07:53:56;11.20;99.90
12893;DHT22;6514;48.606;9.222;2023-03-14T07:56:23;11.10;99.90
12893;DHT22;6514;48.606;9.222;2023-03-14T07:58:50;11.10;99.90
12893;DHT22;6514;48.606;9.222;2023-03-14T08:01:17;11.10;99.90
12893;DHT22;6514;48.606;9.222;2023-03-14T08:03:44;11.20;99.90
12893;DHT22;6514;48.606;9.222;2023-03-14T08:06:11;11.50;99.90
12893;DHT22;6514;48.606;9.222;2023-03-14T08:08:39;11.60;99.90
12893;DHT22;6514;48.606;9.222;2023-03-14T08:11:08;11.70;99.90
12893;DHT22;6514;48.606;9.222;2023-03-14T08:13:35;11.60;99.90
12893;DHT22;6514;48.606;9.222;2023-03-14T08:16:02;11.70;99.90
12893;DHT22;6514;48.606;9.222;2023-03-14T08:18:30;11.80;99.90
12893;DHT22;6514;48.606;9.222;2023-03-14T08:20:57;11.80;99.90
12893;DHT22;6514;48.606;9.222;2023-03-14T08:23:24;11.90;99.90
12893;DHT22;6514;48.606;9.222;2023-03-14T08:25:51;12.00;99.90
12893;DHT22;6514;48.606;9.222;2023-03-14T08:28:19;12.00;99.90
12893;DHT22;6514;48.606;9.222;2023-03-14T08:30:46;12.00;99.90
12893;DHT22;6514;48.606;9.222;2023-03-14T08:33:13;11.90;99.90
12893;DHT22;6514;48.606;9.222;2023-03-14T08:35:40;11.80;99.90
12893;DHT22;6514;48.606;9.222;2023-03-14T08:38:07;11.80;99.90
12893;DHT22;6514;48.606;9.222;2023-03-14T08:40:34;11.90;99.90
12893;DHT22;6514;48.606;9.222;2023-03-14T08:43:01;12.40;99.90
12893;DHT22;6514;48.606;9.222;2023-03-14T08:45:29;12.70;99.90
12893;DHT22;6514;48.606;9.222;2023-03-14T08:47:57;13.30;99.90
12893;DHT22;6514;48.606;9.222;2023-03-14T08:50:25;13.90;99.90
12893;DHT22;6514;48.606;9.222;2023-03-14T08:52:52;14.30;99.90
12893;DHT22;6514;48.606;9.222;2023-03-14T08:55:18;14.50;99.90
12893;DHT22;6514;48.606;9.222;2023-03-14T08:57:46;14.50;99.90
12893;DHT22;6514;48.606;9.222;2023-03-14T09:00:14;14.40;99.90
12893;DHT22;6514;48.606;9.222;2023-03-14T09:02:42;14.50;99.90
12893;DHT22;6514;48.606;9.222;2023-03-14T09:05:10;14.40;99.90
12893;DHT22;6514;48.606;9.222;2023-03-14T09:07:37;14.40;99.90
12893;DHT22;6514;48.606;9.222;2023-03-14T09:10:05;14.50;99.90
12893;DHT22;6514;48.606;9.222;2023-03-14T09:12:32;14.10;99.90
12893;DHT22;6514;48.606;9.222;2023-03-14T09:14:59;13.80;99.90
12893;DHT22;6514;48.606;9.222;2023-03-14T09:17:27;13.50;99.90
12893;DHT22;6514;48.606;9.222;2023-03-14T09:19:55;13.30;99.90
12893;DHT22;6514;48.606;9.222;2023-03-14T09:22:22;13.20;99.90
12893;DHT22;6514;48.606;9.222;2023-03-14T09:24:49;13.20;99.90
12893;DHT22;6514;48.606;9.222;2023-03-14T09:27:16;13.30;99.90
12893;DHT22;6514;48.606;9.222;2023-03-14T09:29:43;13.40;99.90
12893;DHT22;6514;48.606;9.222;2023-03-14T09:32:09;13.30;99.90
12893;DHT22;6514;48.606;9.222;2023-03-14T09:34:36;13.30;99.90
12893;DHT22;6514;48.606;9.222;2023-03-14T09:37:04;13.10;99.90
12893;DHT22;6514;48.606;9.222;2023-03-14T09:39:32;12.90;99.90
12893;DHT22;6514;48.606;9.222;2023-03-14T09:42:02;12.70;99.90
12893;DHT22;6514;48.606;9.222;2023-03-14T09:44:32;12.40;99.90
12893;DHT22;6514;48.606;9.222;2023-03-14T09:47:03;12.20;99.90
12893;DHT22;6514;48.606;9.222;2023-03-14T09:49:32;12.00;99.90
12893;DHT22;6514;48.606;9.222;2023-03-14T09:52:01;11.80;99.90
12893;DHT22;6514;48.606;9.222;2023-03-14T09:54:35;11.60;99.90
12893;DHT22;6514;48.606;9.222;2023-03-14T09:57:05;11.30;99.90
12893;DHT22;6514;48.606;9.222;2023-03-14T09:59:34;11.30;99.90
12893;DHT22;6514;48.606;9.222;2023-03-14T10:02:15;11.10;99.90
12893;DHT22;6514;48.606;9.222;2023-03-14T10:04:44;10.90;99.90
12893;DHT22;6514;48.606;9.222;2023-03-14T10:07:13;10.80;99.90
12893;DHT22;6514;48.606;9.222;2023-03-14T10:09:44;10.80;99.90
12893;DHT22;6514;48.606;9.222;2023-03-14T10:12:12;10.80;99.90
12893;DHT22;6514;48.606;9.222;2023-03-14T10:14:46;10.80;99.90
12893;DHT22;6514;48.606;9.222;2023-03-14T10:17:13;10.90;99.90
12893;DHT22;6514;48.606;9.222;2023-03-14T10:19:51;11.00;99.90
12893;DHT22;6514;48.606;9.222;2023-03-14T10:22:19;11.10;99.90
12893;DHT22;6514;48.606;9.222;2023-03-14T10:24:53;11.30;99.90
12893;DHT22;6514;48.606;9.222;2023-03-14T10:27:26;11.50;99.90
12893;DHT22;6514;48.606;9.222;2023-03-14T10:29:55;11.80;99.90
12893;DHT22;6514;48.606;9.222;2023-03-14T10:32:28;12.00;99.90
12893;DHT22;6514;48.606;9.222;2023-03-14T10:35:08;12.30;99.90
12893;DHT22;6514;48.606;9.222;2023-03-14T10:37:35;12.50;99.90
12893;DHT22;6514;48.606;9.222;2023-03-14T10:40:05;12.60;99.90
12893;DHT22;6514;48.606;9.222;2023-03-14T10:42:34;12.70;99.90
12893;DHT22;6514;48.606;9.222;2023-03-14T10:45:20;12.70;99.90
12893;DHT22;6514;48.606;9.222;2023-03-14T10:47:49;12.80;99.90
12893;DHT22;6514;48.606;9.222;2023-03-14T10:50:24;12.80;99.90
12893;DHT22;6514;48.606;9.222;2023-03-14T10:52:52;12.80;99.90
12893;DHT22;6514;48.606;9.222;2023-03-14T10:55:22;12.90;99.90
12893;DHT22;6514;48.606;9.222;2023-03-14T10:57:49;12.90;99.90
12893;DHT22;6514;48.606;9.222;2023-03-14T11:00:18;12.80;99.90
12893;DHT22;6514;48.606;9.222;2023-03-14T11:02:59;12.70;99.90
12893;DHT22;6514;48.606;9.222;2023-03-14T11:05:35;12.70;99.90
12893;DHT22;6514;48.606;9.222;2023-03-14T11:08:09;12.60;99.90
12893;DHT22;6514;48.606;9.222;2023-03-14T11:10:39;12.50;99.90
12893;DHT22;6514;48.606;9.222;2023-03-14T11:13:21;12.50;99.90
12893;DHT22;6514;48.606;9.222;2023-03-14T11:16:02;12.40;99.90
12893;DHT22;6514;48.606;9.222;2023-03-14T11:19:03;12.40;99.90
12893;DHT22;6514;48.606;9.222;2023-03-14T11:21:38;12.20;99.90
12893;DHT22;6514;48.606;9.222;2023-03-14T11:24:29;12.00;99.90
12893;DHT22;6514;48.606;9.222;2023-03-14T11:27:03;11.80;99.90
12893;DHT22;6514;48.606;9.222;2023-03-14T11:29:37;11.70;99.90
12893;DHT22;6514;48.606;9.222;2023-03-14T11:32:13;11.60;99.90
12893;DHT22;6514;48.606;9.222;2023-03-14T11:34:44;11.60;99.90
12893;DHT22;6514;48.606;9.222;2023-03-14T11:37:18;11.50;99.90
12893;DHT22;6514;48.606;9.222;2023-03-14T11:39:56;11.50;99.90
12893;DHT22;6514;48.606;9.222;2023-03-14T11:42:26;11.40;99.90
12893;DHT22;6514;48.606;9.222;2023-03-14T11:44:54;11.30;99.90
12893;DHT22;6514;48.606;9.222;2023-03-14T11:47:25;11.20;99.90
12893;DHT22;6514;48.606;9.222;2023-03-14T11:49:57;11.00;99.90
12893;DHT22;6514;48.606;9.222;2023-03-14T11:52:29;10.90;99.90
12893;DHT22;6514;48.606;9.222;2023-03-14T11:55:00;10.70;99.90
12893;DHT22;6514;48.606;9.222;2023-03-14T11:57:30;10.60;99.90
12893;DHT22;6514;48.606;9.222;2023-03-14T12:00:02;10.60;99.90
12893;DHT22;6514;48.606;9.222;2023-03-14T12:02:39;10.70;99.90
12893;DHT22;6514;48.606;9.222;2023-03-14T12:05:38;10.80;99.90
12893;DHT22;6514;48.606;9.222;2023-03-14T12:08:26;10.80;99.90
12893;DHT22;6514;48.606;9.222;2023-03-14T12:10:58;10.80;99.90
12893;DHT22;6514;48.606;9.222;2023-03-14T12:13:32;10.70;99.90
12893;DHT22;6514;48.606;9.222;2023-03-14T12:16:03;10.60;99.90
12893;DHT22;6514;48.606;9.222;2023-03-14T12:18:32;10.60;99.90
12893;DHT22;6514;48.606;9.222;2023-03-14T12:21:01;10.50;99.90
12893;DHT22;6514;48.606;9.222;2023-03-14T12:23:36;10.50;99.90
12893;DHT22;6514;48.606;9.222;2023-03-14T12:26:13;10.40;99.90
12893;DHT22;6514;48.606;9.222;2023-03-14T12:28:44;10.50;99.90
12893;DHT22;6514;48.606;9.222;2023-03-14T12:31:38;10.60;99.90
12893;DHT22;6514;48.606;9.222;2023-03-14T12:34:25;10.70;99.90
12893;DHT22;6514;48.606;9.222;2023-03-14T12:36:59;10.80;99.90
12893;DHT22;6514;48.606;9.222;2023-03-14T12:39:36;10.80;99.90
12893;DHT22;6514;48.606;9.222;2023-03-14T12:42:09;10.80;99.90
12893;DHT22;6514;48.606;9.222;2023-03-14T12:44:46;10.80;99.90
12893;DHT22;6514;48.606;9.222;2023-03-14T12:50:16;11.00;99.90
12893;DHT22;6514;48.606;9.222;2023-03-14T12:52:54;11.20;99.90
12893;DHT22;6514;48.606;9.222;2023-03-14T12:55:31;11.00;99.90
12893;DHT22;6514;48.606;9.222;2023-03-14T12:58:04;10.80;99.90
12893;DHT22;6514;48.606;9.222;2023-03-14T13:00:35;10.90;99.90
12893;DHT22;6514;48.606;9.222;2023-03-14T13:03:16;11.00;99.90
12893;DHT22;6514;48.606;9.222;2023-03-14T13:05:52;11.30;99.90
12893;DHT22;6514;48.606;9.222;2023-03-14T13:08:34;11.50;99.90
12893;DHT22;6514;48.606;9.222;2023-03-14T13:11:03;11.70;99.90
12893;DHT22;6514;48.606;9.222;2023-03-14T13:13:34;11.50;99.90
12893;DHT22;6514;48.606;9.222;2023-03-14T13:16:03;11.40;99.90
12893;DHT22;6514;48.606;9.222;2023-03-14T13:18:34;11.40;99.90
12893;DHT22;6514;48.606;9.222;2023-03-14T13:21:03;11.60;99.90
12893;DHT22;6514;48.606;9.222;2023-03-14T13:23:33;11.80;99.90
12893;DHT22;6514;48.606;9.222;2023-03-14T13:26:01;11.90;99.90
12893;DHT22;6514;48.606;9.222;2023-03-14T13:28:30;11.90;99.90
12893;DHT22;6514;48.606;9.222;2023-03-14T13:30:58;11.70;99.90
12893;DHT22;6514;48.606;9.222;2023-03-14T13:33:28;11.60;99.90
12893;DHT22;6514;48.606;9.222;2023-03-14T13:35:56;11.30;99.90
12893;DHT22;6514;48.606;9.222;2023-03-14T13:38:26;11.10;99.90
12893;DHT22;6514;48.606;9.222;2023-03-14T13:40:55;10.70;99.90
12893;DHT22;6514;48.606;9.222;2023-03-14T13:43:27;10.40;99.90
12893;DHT22;6514;48.606;9.222;2023-03-14T13:46:02;10.20;99.90
12893;DHT22;6514;48.606;9.222;2023-03-14T13:48:33;10.00;99.90
12893;DHT22;6514;48.606;9.222;2023-03-14T13:51:02;9.70;99.90
12893;DHT22;6514;48.606;9.222;2023-03-14T13:53:30;9.50;99.90
12893;DHT22;6514;48.606;9.222;2023-03-14T13:56:01;9.30;99.90
12893;DHT22;6514;48.606;9.222;2023-03-14T13:58:29;9.20;99.90
12893;DHT22;6514;48.606;9.222;2023-03-14T14:01:02;9.10;99.90
12893;DHT22;6514;48.606;9.222;2023-03-14T14:03:33;9.00;99.90
12893;DHT22;6514;48.606;9.222;2023-03-14T14:06:01;8.90;99.90
12893;DHT22;6514;48.606;9.222;2023-03-14T14:08:28;8.80;99.90
12893;DHT22;6514;48.606;9.222;2023-03-14T14:10:59;8.70;99.90
12893;DHT22;6514;48.606;9.222;2023-03-14T14:13:29;8.80;99.90
12893;DHT22;6514;48.606;9.222;2023-03-14T14:16:00;8.80;99.90
12893;DHT22;6514;48.606;9.222;2023-03-14T14:18:29;8.90;99.90
12893;DHT22;6514;48.606;9.222;2023-03-14T14:20:58;9.00;99.90
12893;DHT22;6514;48.606;9.222;2023-03-14T14:23:27;9.00;99.90
12893;DHT22;6514;48.606;9.222;2023-03-14T14:25:56;9.00;99.90
12893;DHT22;6514;48.606;9.222;2023-03-14T14:28:26;8.90;99.90
12893;DHT22;6514;48.606;9.222;2023-03-14T14:31:03;8.90;99.90
12893;DHT22;6514;48.606;9.222;2023-03-14T14:33:38;8.90;99.90
12893;DHT22;6514;48.606;9.222;2023-03-14T14:36:15;9.00;99.90
12893;DHT22;6514;48.606;9.222;2023-03-14T14:38:49;9.20;99.90
12893;DHT22;6514;48.606;9.222;2023-03-14T14:41:16;9.20;99.90
12893;DHT22;6514;48.606;9.222;2023-03-14T14:43:43;9.00;99.90
12893;DHT22;6514;48.606;9.222;2023-03-14T14:46:14;9.00;99.90
12893;DHT22;6514;48.606;9.222;2023-03-14T14:48:43;9.00;99.90
12893;DHT22;6514;48.606;9.222;2023-03-14T14:51:23;8.90;99.90
12893;DHT22;6514;48.606;9.222;2023-03-14T14:53:59;8.80;99.90
12893;DHT22;6514;48.606;9.222;2023-03-14T14:56:27;8.70;99.90
12893;DHT22;6514;48.606;9.222;2023-03-14T14:58:57;8.70;99.90
12893;DHT22;6514;48.606;9.222;2023-03-14T15:01:25;8.80;99.90
12893;DHT22;6514;48.606;9.222;2023-03-14T15:03:57;8.80;99.90
12893;DHT22;6514;48.606;9.222;2023-03-14T15:06:28;8.90;99.90
12893;DHT22;6514;48.606;9.222;2023-03-14T15:08:57;8.90;99.90
12893;DHT22;6514;48.606;9.222;2023-03-14T15:11:25;9.00;99.90
12893;DHT22;6514;48.606;9.222;2023-03-14T15:13:53;9.00;99.90
12893;DHT22;6514;48.606;9.222;2023-03-14T15:16:22;9.10;99.90
12893;DHT22;6514;48.606;9.222;2023-03-14T15:18:53;9.20;99.90
12893;DHT22;6514;48.606;9.222;2023-03-14T15:21:21;9.20;99.90
12893;DHT22;6514;48.606;9.222;2023-03-14T15:23:50;9.20;99.90
12893;DHT22;6514;48.606;9.222;2023-03-14T15:26:18;9.70;99.90
12893;DHT22;6514;48.606;9.222;2023-03-14T15:28:45;9.20;99.90
12893;DHT22;6514;48.606;9.222;2023-03-14T15:31:13;9.30;99.90
12893;DHT22;6514;48.606;9.222;2023-03-14T15:33:41;9.10;99.90
12893;DHT22;6514;48.606;9.222;2023-03-14T15:36:19;9.10;99.90
12893;DHT22;6514;48.606;9.222;2023-03-14T15:38:47;8.90;99.90
12893;DHT22;6514;48.606;9.222;2023-03-14T15:41:15;8.90;99.90
12893;DHT22;6514;48.606;9.222;2023-03-14T15:43:42;8.90;99.90
12893;DHT22;6514;48.606;9.222;2023-03-14T15:46:10;8.90;99.90
12893;DHT22;6514;48.606;9.222;2023-03-14T15:48:37;8.80;99.90
12893;DHT22;6514;48.606;9.222;2023-03-14T15:51:05;8.80;99.90
12893;DHT22;6514;48.606;9.222;2023-03-14T15:53:32;8.70;99.90
12893;DHT22;6514;48.606;9.222;2023-03-14T15:55:59;8.60;99.90
12893;DHT22;6514;48.606;9.222;2023-03-14T15:58:27;8.60;99.90
12893;DHT22;6514;48.606;9.222;2023-03-14T16:00:54;8.60;99.90
12893;DHT22;6514;48.606;9.222;2023-03-14T16:03:21;8.60;99.90
12893;DHT22;6514;48.606;9.222;2023-03-14T16:05:47;8.50;99.90
12893;DHT22;6514;48.606;9.222;2023-03-14T16:08:14;8.50;99.90
12893;DHT22;6514;48.606;9.222;2023-03-14T16:10:42;8.50;99.90